createdAt,value
2023-04-07T00:03:11.030Z,1206.12112
2023-04-07T00:18:12.857Z,1196.42908
2023-04-07T00:33:14.716Z,1094.77174
2023-04-07T00:48:16.501Z,1001.49527
2023-04-07T01:03:18.715Z,991.12476
2023-04-07T01:18:20.715Z,938.37585
2023-04-07T01:33:22.693Z,958.51266
2023-04-07T01:48:24.467Z,1002.99451
2023-04-07T02:03:26.354Z,1062.64919
2023-04-07T02:18:28.321Z,1110.19106
2023-04-07T02:33:30.116Z,1150.2151
2023-04-07T02:48:31.895Z,1126.05092
2023-04-07T03:03:33.723Z,1147.26078
2023-04-07T03:18:36.690Z,1183.74609
2023-04-07T03:33:38.442Z,1177.5049
2023-04-07T03:48:40.181Z,1162.18611
2023-04-07T04:03:42.075Z,1196.42908
2023-04-07T04:18:43.933Z,1238.44783
2023-04-07T04:33:45.679Z,1295.93861
2023-04-07T04:48:47.369Z,1333.33384
2023-04-07T05:18:50.930Z,1431.62445
2023-04-07T05:33:53.117Z,1419.49204
2023-04-07T05:48:55.179Z,1443.96603
2023-04-07T06:03:57.078Z,1501.40105
2023-04-07T06:18:58.847Z,1569.08714
2023-04-07T06:34:00.602Z,1635.14387
2023-04-07T06:49:02.365Z,1686.59584
2023-04-07T07:04:04.216Z,1704.8351
2023-04-07T07:19:06.040Z,1745.92883
2023-04-07T07:34:07.795Z,1809.58861
2023-04-07T07:49:09.512Z,1826.85803
2023-04-07T08:04:11.429Z,1824.37082
2023-04-07T08:19:13.425Z,1830.60159
2023-04-07T08:34:15.181Z,1850.82923
2023-04-07T08:49:16.913Z,1857.24235
2023-04-07T09:04:18.751Z,1875.43787
2023-04-07T09:19:20.667Z,1908.83241
2023-04-07T09:34:22.413Z,1910.19294
2023-04-07T09:49:24.140Z,1891.32019
2023-04-07T10:04:25.927Z,1923.90574
2023-04-07T10:19:27.733Z,1995.53289
2023-04-07T10:34:29.498Z,2033.38442
2023-04-07T10:49:31.240Z,2069.49857
2023-04-07T11:04:33.165Z,2123.61382
2023-04-07T11:19:36.350Z,2120.25367
2023-04-07T11:34:38.139Z,2067.90174
2023-04-07T11:49:39.877Z,2113.56517
2023-04-07T12:04:41.841Z,2135.45867
2023-04-07T12:19:43.614Z,2178.86229
2023-04-07T12:34:45.337Z,2213.04757
2023-04-07T12:49:49.278Z,2196.72182
2023-04-07T13:04:51.785Z,2145.71708
2023-04-07T13:19:54.248Z,2170.04099
2023-04-07T13:34:56.132Z,2189.54299
2023-04-07T13:49:57.881Z,2159.54925
2023-04-07T14:04:59.623Z,2111.89964
2023-04-07T14:20:01.354Z,1944.8481
2023-04-07T14:35:03.086Z,1943.43777
2023-04-07T14:50:04.937Z,1963.37046
2023-04-07T15:05:06.722Z,2015.03809
2023-04-07T15:20:08.492Z,1998.50908
2023-04-07T15:35:10.260Z,1966.25142
2023-04-07T15:50:12.003Z,1951.93058
2023-04-07T16:05:13.804Z,1977.86028
2023-04-07T16:20:15.554Z,2000.0005
2023-04-07T16:35:17.299Z,2015.03809
2023-04-07T16:50:19.106Z,1895.33289
2023-04-07T17:05:20.879Z,1789.05257
2023-04-07T17:20:22.740Z,1787.85907
2023-04-07T17:35:24.566Z,1784.28811
2023-04-07T17:50:26.302Z,1783.10096
2023-04-07T18:05:28.046Z,1792.64264
2023-04-07T18:20:29.843Z,1750.49037
2023-04-07T18:35:31.627Z,1689.78612
2023-04-07T18:50:33.355Z,1681.30539
2023-04-07T19:05:35.091Z,1685.53509
2023-04-07T19:20:36.853Z,1722.36553
2023-04-07T19:35:38.640Z,1749.34775
2023-04-07T19:50:40.479Z,1658.41634
2023-04-07T20:05:42.254Z,1502.24264
2023-04-07T20:20:44.008Z,1401.67415
2023-04-07T20:35:45.759Z,1245.35367
2023-04-07T20:50:47.539Z,1179.57797
2023-04-07T21:05:49.302Z,1293.4368
2023-04-07T21:20:51.040Z,1371.54606
2023-04-07T21:35:52.887Z,1395.83385
2023-04-07T21:50:54.760Z,1394.38137
2023-04-07T22:05:56.489Z,1406.08656
2023-04-07T22:20:58.337Z,1410.52683
2023-04-07T22:36:00.177Z,1442.41171
2023-04-07T22:51:02.011Z,1461.28732
2023-04-07T23:06:03.747Z,1488.88941
2023-04-07T23:21:05.477Z,1505.61849
2023-04-07T23:36:07.282Z,1497.2072
2023-04-07T23:51:09.035Z,1529.68086
